Terminal Aerodrome Forecast
Issued by NWS Grand Forks, ND

Home | Current Version | Previous Version | Text Only | Print | Product List | Glossary Off
Versions: 1 2 3 4 5 6 7 8 9 10 11 12 13 14 15 16 17

000
FTUS43 KFGF 220930 AAA
TAFGFK
TAF AMD
KGFK 220930Z 2210/2306 29009KT P6SM VCSH OVC050
     FM221500 33013KT P6SM OVC030
     FM230000 35014KT P6SM OVC035
     FM230200 35011KT P6SM OVC025=

USA.gov is the U.S. government's official web portal to all federal, state and local government web resources and services.